sensor_id;sensor_type;location;lat;lon;timestamp;temperature;humidity
68766;DHT22;55756;45.582;11.484;2023-11-21T00:01:37;13.40;59.50
68766;DHT22;55756;45.582;11.484;2023-11-21T00:04:03;13.40;59.70
68766;DHT22;55756;45.582;11.484;2023-11-21T00:06:29;13.40;59.60
68766;DHT22;55756;45.582;11.484;2023-11-21T00:08:56;13.50;59.20
68766;DHT22;55756;45.582;11.484;2023-11-21T00:11:22;13.50;59.10
68766;DHT22;55756;45.582;11.484;2023-11-21T00:13:47;13.50;58.90
68766;DHT22;55756;45.582;11.484;2023-11-21T00:16:13;13.50;58.90
68766;DHT22;55756;45.582;11.484;2023-11-21T00:18:39;13.50;58.80
68766;DHT22;55756;45.582;11.484;2023-11-21T00:21:05;13.50;59.10
68766;DHT22;55756;45.582;11.484;2023-11-21T00:23:31;13.50;59.10
68766;DHT22;55756;45.582;11.484;2023-11-21T00:25:56;13.50;58.90
68766;DHT22;55756;45.582;11.484;2023-11-21T00:28:22;13.50;58.80
68766;DHT22;55756;45.582;11.484;2023-11-21T00:30:48;13.50;58.60
68766;DHT22;55756;45.582;11.484;2023-11-21T00:33:14;13.50;58.60
68766;DHT22;55756;45.582;11.484;2023-11-21T00:35:39;13.50;58.60
68766;DHT22;55756;45.582;11.484;2023-11-21T00:38:05;13.50;58.70
68766;DHT22;55756;45.582;11.484;2023-11-21T00:40:32;13.50;58.70
68766;DHT22;55756;45.582;11.484;2023-11-21T00:42:58;13.50;58.50
68766;DHT22;55756;45.582;11.484;2023-11-21T00:45:24;13.50;58.60
68766;DHT22;55756;45.582;11.484;2023-11-21T00:47:50;13.60;58.80
68766;DHT22;55756;45.582;11.484;2023-11-21T00:50:16;13.50;59.00
68766;DHT22;55756;45.582;11.484;2023-11-21T00:52:42;13.60;59.00
68766;DHT22;55756;45.582;11.484;2023-11-21T00:55:08;13.60;59.00
68766;DHT22;55756;45.582;11.484;2023-11-21T00:57:34;13.60;58.90
68766;DHT22;55756;45.582;11.484;2023-11-21T01:00:00;13.60;59.00
68766;DHT22;55756;45.582;11.484;2023-11-21T01:02:26;13.60;59.10
68766;DHT22;55756;45.582;11.484;2023-11-21T01:04:52;13.60;59.20
68766;DHT22;55756;45.582;11.484;2023-11-21T01:07:19;13.50;59.10
68766;DHT22;55756;45.582;11.484;2023-11-21T01:09:46;13.60;59.00
68766;DHT22;55756;45.582;11.484;2023-11-21T01:12:12;13.50;59.00
68766;DHT22;55756;45.582;11.484;2023-11-21T01:14:37;13.50;59.00
68766;DHT22;55756;45.582;11.484;2023-11-21T01:17:03;13.50;59.00
68766;DHT22;55756;45.582;11.484;2023-11-21T01:19:30;13.50;59.10
68766;DHT22;55756;45.582;11.484;2023-11-21T01:21:56;13.50;59.20
68766;DHT22;55756;45.582;11.484;2023-11-21T01:24:23;13.50;59.10
68766;DHT22;55756;45.582;11.484;2023-11-21T01:26:50;13.40;59.30
68766;DHT22;55756;45.582;11.484;2023-11-21T01:29:16;13.40;59.20
68766;DHT22;55756;45.582;11.484;2023-11-21T01:31:42;13.40;59.30
68766;DHT22;55756;45.582;11.484;2023-11-21T01:34:08;13.40;59.10
68766;DHT22;55756;45.582;11.484;2023-11-21T01:36:34;13.50;59.10
68766;DHT22;55756;45.582;11.484;2023-11-21T01:39:00;13.40;59.00
68766;DHT22;55756;45.582;11.484;2023-11-21T01:41:27;13.40;59.00
68766;DHT22;55756;45.582;11.484;2023-11-21T01:43:54;13.40;59.00
68766;DHT22;55756;45.582;11.484;2023-11-21T01:46:21;13.40;59.10
68766;DHT22;55756;45.582;11.484;2023-11-21T01:48:48;13.40;59.10
68766;DHT22;55756;45.582;11.484;2023-11-21T01:51:15;13.30;59.20
68766;DHT22;55756;45.582;11.484;2023-11-21T01:53:41;13.40;59.10
68766;DHT22;55756;45.582;11.484;2023-11-21T01:56:07;13.40;59.00
68766;DHT22;55756;45.582;11.484;2023-11-21T01:58:34;13.40;58.90
68766;DHT22;55756;45.582;11.484;2023-11-21T02:00:59;13.30;58.90
68766;DHT22;55756;45.582;11.484;2023-11-21T02:03:28;13.30;58.90
68766;DHT22;55756;45.582;11.484;2023-11-21T02:05:53;13.30;58.90
68766;DHT22;55756;45.582;11.484;2023-11-21T02:08:19;13.30;59.00
68766;DHT22;55756;45.582;11.484;2023-11-21T02:10:45;13.30;59.00
68766;DHT22;55756;45.582;11.484;2023-11-21T02:13:11;13.30;59.00
68766;DHT22;55756;45.582;11.484;2023-11-21T02:15:37;13.30;59.10
68766;DHT22;55756;45.582;11.484;2023-11-21T02:18:04;13.30;59.10
68766;DHT22;55756;45.582;11.484;2023-11-21T02:20:32;13.30;59.00
68766;DHT22;55756;45.582;11.484;2023-11-21T02:23:00;13.30;58.90
68766;DHT22;55756;45.582;11.484;2023-11-21T02:25:31;13.30;59.10
68766;DHT22;55756;45.582;11.484;2023-11-21T02:28:01;13.20;59.10
68766;DHT22;55756;45.582;11.484;2023-11-21T02:30:27;13.20;59.20
68766;DHT22;55756;45.582;11.484;2023-11-21T02:32:54;13.20;59.30
68766;DHT22;55756;45.582;11.484;2023-11-21T02:35:21;13.30;59.30
68766;DHT22;55756;45.582;11.484;2023-11-21T02:37:49;13.20;59.20
68766;DHT22;55756;45.582;11.484;2023-11-21T02:40:15;13.20;59.20
68766;DHT22;55756;45.582;11.484;2023-11-21T02:42:46;13.20;59.20
68766;DHT22;55756;45.582;11.484;2023-11-21T02:45:15;13.20;59.30
68766;DHT22;55756;45.582;11.484;2023-11-21T02:47:44;13.20;59.20
68766;DHT22;55756;45.582;11.484;2023-11-21T02:50:10;13.20;59.10
68766;DHT22;55756;45.582;11.484;2023-11-21T02:52:37;13.20;59.20
68766;DHT22;55756;45.582;11.484;2023-11-21T02:55:03;13.20;59.20
68766;DHT22;55756;45.582;11.484;2023-11-21T02:57:29;13.20;59.20
68766;DHT22;55756;45.582;11.484;2023-11-21T02:59:55;13.20;59.00
68766;DHT22;55756;45.582;11.484;2023-11-21T03:02:21;13.20;58.90
68766;DHT22;55756;45.582;11.484;2023-11-21T03:04:48;13.20;58.90
68766;DHT22;55756;45.582;11.484;2023-11-21T03:07:15;13.20;59.00
68766;DHT22;55756;45.582;11.484;2023-11-21T03:09:41;13.20;59.00
68766;DHT22;55756;45.582;11.484;2023-11-21T03:12:07;13.10;58.90
68766;DHT22;55756;45.582;11.484;2023-11-21T03:14:34;13.10;58.70
68766;DHT22;55756;45.582;11.484;2023-11-21T03:17:00;13.10;58.70
68766;DHT22;55756;45.582;11.484;2023-11-21T03:19:27;13.10;58.60
68766;DHT22;55756;45.582;11.484;2023-11-21T03:21:53;13.10;58.60
68766;DHT22;55756;45.582;11.484;2023-11-21T03:24:19;13.10;58.60
68766;DHT22;55756;45.582;11.484;2023-11-21T03:26:46;13.10;58.70
68766;DHT22;55756;45.582;11.484;2023-11-21T03:29:12;13.10;58.80
68766;DHT22;55756;45.582;11.484;2023-11-21T03:31:39;13.10;59.00
68766;DHT22;55756;45.582;11.484;2023-11-21T03:34:05;13.10;59.00
68766;DHT22;55756;45.582;11.484;2023-11-21T03:36:32;13.10;58.90
68766;DHT22;55756;45.582;11.484;2023-11-21T03:38:58;13.10;58.50
68766;DHT22;55756;45.582;11.484;2023-11-21T03:41:24;13.10;58.30
68766;DHT22;55756;45.582;11.484;2023-11-21T03:43:50;13.10;58.50
68766;DHT22;55756;45.582;11.484;2023-11-21T03:46:16;13.00;58.60
68766;DHT22;55756;45.582;11.484;2023-11-21T03:48:42;13.00;58.70
68766;DHT22;55756;45.582;11.484;2023-11-21T03:51:08;13.00;58.80
68766;DHT22;55756;45.582;11.484;2023-11-21T03:53:34;13.00;58.90
68766;DHT22;55756;45.582;11.484;2023-11-21T03:56:02;13.00;58.90
68766;DHT22;55756;45.582;11.484;2023-11-21T03:58:29;13.00;58.90
68766;DHT22;55756;45.582;11.484;2023-11-21T04:00:55;13.00;59.00
68766;DHT22;55756;45.582;11.484;2023-11-21T04:03:21;13.00;59.20
68766;DHT22;55756;45.582;11.484;2023-11-21T04:05:46;13.00;59.20
68766;DHT22;55756;45.582;11.484;2023-11-21T04:08:12;13.00;59.10
68766;DHT22;55756;45.582;11.484;2023-11-21T04:10:38;13.00;59.00
68766;DHT22;55756;45.582;11.484;2023-11-21T04:13:05;13.00;58.90
68766;DHT22;55756;45.582;11.484;2023-11-21T04:15:32;13.00;58.90
68766;DHT22;55756;45.582;11.484;2023-11-21T04:17:58;12.90;58.90
68766;DHT22;55756;45.582;11.484;2023-11-21T04:20:24;12.90;59.00
68766;DHT22;55756;45.582;11.484;2023-11-21T04:22:50;12.80;59.10
68766;DHT22;55756;45.582;11.484;2023-11-21T04:25:16;12.80;59.20
68766;DHT22;55756;45.582;11.484;2023-11-21T04:27:43;12.80;59.00
68766;DHT22;55756;45.582;11.484;2023-11-21T04:30:10;12.80;59.00
68766;DHT22;55756;45.582;11.484;2023-11-21T04:32:36;12.80;58.80
68766;DHT22;55756;45.582;11.484;2023-11-21T04:35:02;12.80;58.90
68766;DHT22;55756;45.582;11.484;2023-11-21T04:37:29;12.80;58.80
68766;DHT22;55756;45.582;11.484;2023-11-21T04:39:55;12.80;58.70
68766;DHT22;55756;45.582;11.484;2023-11-21T04:42:21;12.80;58.60
68766;DHT22;55756;45.582;11.484;2023-11-21T04:44:47;12.70;58.60
68766;DHT22;55756;45.582;11.484;2023-11-21T04:47:13;12.70;58.50
68766;DHT22;55756;45.582;11.484;2023-11-21T04:49:42;12.70;58.70
68766;DHT22;55756;45.582;11.484;2023-11-21T04:52:09;12.70;58.40
68766;DHT22;55756;45.582;11.484;2023-11-21T04:54:35;12.70;58.30
68766;DHT22;55756;45.582;11.484;2023-11-21T04:57:01;12.60;58.30
68766;DHT22;55756;45.582;11.484;2023-11-21T04:59:27;12.60;58.20
68766;DHT22;55756;45.582;11.484;2023-11-21T05:01:53;12.60;58.50
68766;DHT22;55756;45.582;11.484;2023-11-21T05:04:20;12.60;58.60
68766;DHT22;55756;45.582;11.484;2023-11-21T05:06:48;12.60;58.60
68766;DHT22;55756;45.582;11.484;2023-11-21T05:09:13;12.50;58.70
68766;DHT22;55756;45.582;11.484;2023-11-21T05:11:39;12.50;58.80
68766;DHT22;55756;45.582;11.484;2023-11-21T05:14:06;12.50;58.60
68766;DHT22;55756;45.582;11.484;2023-11-21T05:16:32;12.50;58.40
68766;DHT22;55756;45.582;11.484;2023-11-21T05:18:59;12.50;58.30
68766;DHT22;55756;45.582;11.484;2023-11-21T05:21:29;12.50;58.10
68766;DHT22;55756;45.582;11.484;2023-11-21T05:23:57;12.50;58.20
68766;DHT22;55756;45.582;11.484;2023-11-21T05:26:22;12.40;58.20
68766;DHT22;55756;45.582;11.484;2023-11-21T05:28:48;12.40;58.40
68766;DHT22;55756;45.582;11.484;2023-11-21T05:31:14;12.40;58.30
68766;DHT22;55756;45.582;11.484;2023-11-21T05:33:40;12.40;58.20
68766;DHT22;55756;45.582;11.484;2023-11-21T05:36:07;12.40;58.30
68766;DHT22;55756;45.582;11.484;2023-11-21T05:38:35;12.40;58.30
68766;DHT22;55756;45.582;11.484;2023-11-21T05:41:01;12.40;58.40
68766;DHT22;55756;45.582;11.484;2023-11-21T05:43:27;12.30;58.30
68766;DHT22;55756;45.582;11.484;2023-11-21T05:45:55;12.30;58.10
68766;DHT22;55756;45.582;11.484;2023-11-21T05:48:20;12.30;58.10
68766;DHT22;55756;45.582;11.484;2023-11-21T05:50:46;12.30;58.40
68766;DHT22;55756;45.582;11.484;2023-11-21T05:53:14;12.30;58.40
68766;DHT22;55756;45.582;11.484;2023-11-21T05:55:41;12.30;58.20
68766;DHT22;55756;45.582;11.484;2023-11-21T05:58:08;12.30;58.10
68766;DHT22;55756;45.582;11.484;2023-11-21T06:00:33;12.30;57.80
68766;DHT22;55756;45.582;11.484;2023-11-21T06:02:59;12.30;57.70
68766;DHT22;55756;45.582;11.484;2023-11-21T06:05:26;12.20;57.60
68766;DHT22;55756;45.582;11.484;2023-11-21T06:07:52;12.20;57.40
68766;DHT22;55756;45.582;11.484;2023-11-21T06:10:20;12.20;57.50
68766;DHT22;55756;45.582;11.484;2023-11-21T06:12:47;12.10;57.50
68766;DHT22;55756;45.582;11.484;2023-11-21T06:15:13;12.10;57.60
68766;DHT22;55756;45.582;11.484;2023-11-21T06:17:42;12.10;57.70
68766;DHT22;55756;45.582;11.484;2023-11-21T06:20:11;12.10;57.70
68766;DHT22;55756;45.582;11.484;2023-11-21T06:22:43;12.10;57.90
68766;DHT22;55756;45.582;11.484;2023-11-21T06:25:11;12.10;58.00
68766;DHT22;55756;45.582;11.484;2023-11-21T06:27:46;12.10;58.00
68766;DHT22;55756;45.582;11.484;2023-11-21T06:30:16;12.00;58.10
68766;DHT22;55756;45.582;11.484;2023-11-21T06:32:42;12.00;58.20
68766;DHT22;55756;45.582;11.484;2023-11-21T06:35:11;12.00;58.10
68766;DHT22;55756;45.582;11.484;2023-11-21T06:37:37;12.10;58.10
68766;DHT22;55756;45.582;11.484;2023-11-21T06:40:03;12.10;58.00
68766;DHT22;55756;45.582;11.484;2023-11-21T06:42:30;12.10;58.00
68766;DHT22;55756;45.582;11.484;2023-11-21T06:44:56;12.10;58.50
68766;DHT22;55756;45.582;11.484;2023-11-21T06:47:23;12.00;58.80
68766;DHT22;55756;45.582;11.484;2023-11-21T06:49:53;12.10;58.80
68766;DHT22;55756;45.582;11.484;2023-11-21T06:52:19;12.10;59.10
68766;DHT22;55756;45.582;11.484;2023-11-21T06:54:46;12.10;59.20
68766;DHT22;55756;45.582;11.484;2023-11-21T06:57:13;12.10;59.40
68766;DHT22;55756;45.582;11.484;2023-11-21T06:59:39;12.10;59.30
68766;DHT22;55756;45.582;11.484;2023-11-21T07:02:04;12.10;59.30
68766;DHT22;55756;45.582;11.484;2023-11-21T07:04:32;12.20;59.50
68766;DHT22;55756;45.582;11.484;2023-11-21T07:06:58;12.20;59.50
68766;DHT22;55756;45.582;11.484;2023-11-21T07:09:24;12.20;59.80
68766;DHT22;55756;45.582;11.484;2023-11-21T07:11:54;12.20;59.90
68766;DHT22;55756;45.582;11.484;2023-11-21T07:14:21;12.20;59.80
68766;DHT22;55756;45.582;11.484;2023-11-21T07:16:47;12.20;59.60
68766;DHT22;55756;45.582;11.484;2023-11-21T07:19:13;12.20;59.40
68766;DHT22;55756;45.582;11.484;2023-11-21T07:21:39;12.20;59.50
68766;DHT22;55756;45.582;11.484;2023-11-21T07:24:07;12.20;59.60
68766;DHT22;55756;45.582;11.484;2023-11-21T07:26:34;12.20;59.80
68766;DHT22;55756;45.582;11.484;2023-11-21T07:29:01;12.20;59.70
68766;DHT22;55756;45.582;11.484;2023-11-21T07:31:27;12.30;59.70
68766;DHT22;55756;45.582;11.484;2023-11-21T07:33:53;12.30;59.90
68766;DHT22;55756;45.582;11.484;2023-11-21T07:36:21;12.30;59.80
68766;DHT22;55756;45.582;11.484;2023-11-21T07:38:47;12.30;59.90
68766;DHT22;55756;45.582;11.484;2023-11-21T07:41:13;12.40;60.10
68766;DHT22;55756;45.582;11.484;2023-11-21T07:43:46;12.40;60.30
68766;DHT22;55756;45.582;11.484;2023-11-21T07:46:12;12.40;60.50
68766;DHT22;55756;45.582;11.484;2023-11-21T07:48:39;12.50;60.50
68766;DHT22;55756;45.582;11.484;2023-11-21T07:51:05;12.50;60.60
68766;DHT22;55756;45.582;11.484;2023-11-21T07:53:33;12.50;60.60
68766;DHT22;55756;45.582;11.484;2023-11-21T07:56:04;12.50;60.60
68766;DHT22;55756;45.582;11.484;2023-11-21T07:58:30;12.50;60.80
68766;DHT22;55756;45.582;11.484;2023-11-21T08:00:56;12.50;60.90
68766;DHT22;55756;45.582;11.484;2023-11-21T08:03:22;12.60;60.80
68766;DHT22;55756;45.582;11.484;2023-11-21T08:05:48;12.60;60.80
68766;DHT22;55756;45.582;11.484;2023-11-21T08:08:13;12.60;60.70
68766;DHT22;55756;45.582;11.484;2023-11-21T08:10:40;12.60;60.80
68766;DHT22;55756;45.582;11.484;2023-11-21T08:13:07;12.60;61.00
68766;DHT22;55756;45.582;11.484;2023-11-21T08:15:34;12.70;61.10
68766;DHT22;55756;45.582;11.484;2023-11-21T08:18:02;12.70;61.20
68766;DHT22;55756;45.582;11.484;2023-11-21T08:20:28;12.70;61.50
68766;DHT22;55756;45.582;11.484;2023-11-21T08:22:54;12.80;61.60
68766;DHT22;55756;45.582;11.484;2023-11-21T08:25:22;12.80;61.50
68766;DHT22;55756;45.582;11.484;2023-11-21T08:27:48;12.80;61.50
68766;DHT22;55756;45.582;11.484;2023-11-21T08:30:14;12.80;61.70
68766;DHT22;55756;45.582;11.484;2023-11-21T08:32:42;12.80;61.90
68766;DHT22;55756;45.582;11.484;2023-11-21T08:35:08;12.80;62.10
68766;DHT22;55756;45.582;11.484;2023-11-21T08:37:34;12.90;62.30
68766;DHT22;55756;45.582;11.484;2023-11-21T08:40:04;12.90;62.20
68766;DHT22;55756;45.582;11.484;2023-11-21T08:42:34;12.90;62.10
68766;DHT22;55756;45.582;11.484;2023-11-21T08:45:00;12.90;61.90
68766;DHT22;55756;45.582;11.484;2023-11-21T08:47:26;13.00;61.80
68766;DHT22;55756;45.582;11.484;2023-11-21T08:49:52;13.00;61.80
68766;DHT22;55756;45.582;11.484;2023-11-21T08:52:19;13.00;61.90
68766;DHT22;55756;45.582;11.484;2023-11-21T08:54:51;13.00;62.00
68766;DHT22;55756;45.582;11.484;2023-11-21T08:57:25;13.10;62.40
68766;DHT22;55756;45.582;11.484;2023-11-21T08:59:51;13.10;62.60
68766;DHT22;55756;45.582;11.484;2023-11-21T09:02:21;13.10;62.90
68766;DHT22;55756;45.582;11.484;2023-11-21T09:04:49;13.10;62.80
68766;DHT22;55756;45.582;11.484;2023-11-21T09:07:16;13.10;62.90
68766;DHT22;55756;45.582;11.484;2023-11-21T09:09:41;13.10;62.90
68766;DHT22;55756;45.582;11.484;2023-11-21T09:12:07;13.20;63.00
68766;DHT22;55756;45.582;11.484;2023-11-21T09:14:38;13.20;63.10
68766;DHT22;55756;45.582;11.484;2023-11-21T09:17:05;13.20;63.20
68766;DHT22;55756;45.582;11.484;2023-11-21T09:19:39;13.20;63.20
68766;DHT22;55756;45.582;11.484;2023-11-21T09:22:06;13.20;63.10
68766;DHT22;55756;45.582;11.484;2023-11-21T09:24:34;13.30;63.30
68766;DHT22;55756;45.582;11.484;2023-11-21T09:27:00;13.30;63.50
68766;DHT22;55756;45.582;11.484;2023-11-21T09:29:27;13.30;63.50
68766;DHT22;55756;45.582;11.484;2023-11-21T09:31:52;13.30;63.60
68766;DHT22;55756;45.582;11.484;2023-11-21T09:34:21;13.30;63.60
68766;DHT22;55756;45.582;11.484;2023-11-21T09:36:47;13.40;63.60
68766;DHT22;55756;45.582;11.484;2023-11-21T09:39:13;13.40;63.50
68766;DHT22;55756;45.582;11.484;2023-11-21T09:41:48;13.40;63.30
68766;DHT22;55756;45.582;11.484;2023-11-21T09:44:18;13.40;63.00
68766;DHT22;55756;45.582;11.484;2023-11-21T09:46:47;13.40;63.20
68766;DHT22;55756;45.582;11.484;2023-11-21T09:49:15;13.40;63.30
68766;DHT22;55756;45.582;11.484;2023-11-21T09:51:45;13.50;63.50
68766;DHT22;55756;45.582;11.484;2023-11-21T09:54:13;13.50;63.50
68766;DHT22;55756;45.582;11.484;2023-11-21T09:56:41;13.50;63.40
68766;DHT22;55756;45.582;11.484;2023-11-21T09:59:13;13.50;63.40
68766;DHT22;55756;45.582;11.484;2023-11-21T10:01:41;13.50;63.50
68766;DHT22;55756;45.582;11.484;2023-11-21T10:04:11;13.60;63.30
68766;DHT22;55756;45.582;11.484;2023-11-21T10:06:40;13.60;63.30
68766;DHT22;55756;45.582;11.484;2023-11-21T10:09:12;13.60;63.40
68766;DHT22;55756;45.582;11.484;2023-11-21T10:11:43;13.60;63.60
68766;DHT22;55756;45.582;11.484;2023-11-21T10:14:11;13.60;63.60
68766;DHT22;55756;45.582;11.484;2023-11-21T10:16:41;13.60;63.50
68766;DHT22;55756;45.582;11.484;2023-11-21T10:19:10;13.60;63.30
68766;DHT22;55756;45.582;11.484;2023-11-21T10:21:38;13.70;63.30
68766;DHT22;55756;45.582;11.484;2023-11-21T10:24:04;13.70;63.30
68766;DHT22;55756;45.582;11.484;2023-11-21T10:26:32;13.70;63.20
68766;DHT22;55756;45.582;11.484;2023-11-21T10:28:59;13.70;63.20
68766;DHT22;55756;45.582;11.484;2023-11-21T10:31:32;13.70;63.50
68766;DHT22;55756;45.582;11.484;2023-11-21T10:34:18;13.70;63.60
68766;DHT22;55756;45.582;11.484;2023-11-21T10:36:44;13.80;63.50
68766;DHT22;55756;45.582;11.484;2023-11-21T10:39:17;13.80;63.60
68766;DHT22;55756;45.582;11.484;2023-11-21T10:41:45;13.80;63.80
68766;DHT22;55756;45.582;11.484;2023-11-21T10:44:14;13.80;64.00
68766;DHT22;55756;45.582;11.484;2023-11-21T10:46:48;13.80;63.90
68766;DHT22;55756;45.582;11.484;2023-11-21T10:49:18;13.90;63.60
68766;DHT22;55756;45.582;11.484;2023-11-21T10:51:45;13.90;63.60
68766;DHT22;55756;45.582;11.484;2023-11-21T10:54:11;13.90;63.50
68766;DHT22;55756;45.582;11.484;2023-11-21T10:56:39;14.00;63.20
68766;DHT22;55756;45.582;11.484;2023-11-21T10:59:10;14.00;62.50
68766;DHT22;55756;45.582;11.484;2023-11-21T11:01:42;14.10;62.40
68766;DHT22;55756;45.582;11.484;2023-11-21T11:04:11;14.10;62.10
68766;DHT22;55756;45.582;11.484;2023-11-21T11:06:48;14.10;61.90
68766;DHT22;55756;45.582;11.484;2023-11-21T11:09:17;14.20;62.00
68766;DHT22;55756;45.582;11.484;2023-11-21T11:11:44;14.30;61.80
68766;DHT22;55756;45.582;11.484;2023-11-21T11:14:13;14.30;62.20
68766;DHT22;55756;45.582;11.484;2023-11-21T11:16:40;14.30;62.00
68766;DHT22;55756;45.582;11.484;2023-11-21T11:19:10;14.30;61.90
68766;DHT22;55756;45.582;11.484;2023-11-21T11:21:43;14.30;62.10
68766;DHT22;55756;45.582;11.484;2023-11-21T11:24:41;14.40;62.40
68766;DHT22;55756;45.582;11.484;2023-11-21T11:27:48;14.40;62.90
68766;DHT22;55756;45.582;11.484;2023-11-21T11:30:40;14.50;62.80
68766;DHT22;55756;45.582;11.484;2023-11-21T11:36:28;14.50;63.60
68766;DHT22;55756;45.582;11.484;2023-11-21T11:38:55;14.50;63.90
68766;DHT22;55756;45.582;11.484;2023-11-21T11:41:30;14.50;64.10
68766;DHT22;55756;45.582;11.484;2023-11-21T11:43:58;14.60;64.10
68766;DHT22;55756;45.582;11.484;2023-11-21T11:46:42;14.60;64.00
68766;DHT22;55756;45.582;11.484;2023-11-21T11:49:10;14.60;63.20
68766;DHT22;55756;45.582;11.484;2023-11-21T11:51:48;14.60;63.10
68766;DHT22;55756;45.582;11.484;2023-11-21T11:54:15;14.70;62.90
68766;DHT22;55756;45.582;11.484;2023-11-21T11:56:45;14.70;62.80
68766;DHT22;55756;45.582;11.484;2023-11-21T11:59:12;14.80;62.70
68766;DHT22;55756;45.582;11.484;2023-11-21T12:01:38;14.80;62.90
68766;DHT22;55756;45.582;11.484;2023-11-21T12:06:59;14.80;63.40
68766;DHT22;55756;45.582;11.484;2023-11-21T12:09:26;14.80;63.70
68766;DHT22;55756;45.582;11.484;2023-11-21T12:11:53;14.80;63.70
68766;DHT22;55756;45.582;11.484;2023-11-21T12:14:20;14.90;63.90
68766;DHT22;55756;45.582;11.484;2023-11-21T12:16:46;14.90;63.90
68766;DHT22;55756;45.582;11.484;2023-11-21T12:19:13;14.90;63.70
68766;DHT22;55756;45.582;11.484;2023-11-21T12:21:40;15.00;63.70
68766;DHT22;55756;45.582;11.484;2023-11-21T12:24:07;15.00;63.80
68766;DHT22;55756;45.582;11.484;2023-11-21T12:26:39;15.00;63.90
68766;DHT22;55756;45.582;11.484;2023-11-21T12:29:05;15.00;64.40
68766;DHT22;55756;45.582;11.484;2023-11-21T12:31:33;15.00;64.60
68766;DHT22;55756;45.582;11.484;2023-11-21T12:34:00;15.00;64.70
68766;DHT22;55756;45.582;11.484;2023-11-21T12:36:26;15.00;64.50
68766;DHT22;55756;45.582;11.484;2023-11-21T12:38:52;15.10;64.20
68766;DHT22;55756;45.582;11.484;2023-11-21T12:41:17;15.10;64.00
68766;DHT22;55756;45.582;11.484;2023-11-21T12:43:43;15.10;63.90
68766;DHT22;55756;45.582;11.484;2023-11-21T12:46:10;15.10;64.30
68766;DHT22;55756;45.582;11.484;2023-11-21T12:48:42;15.10;64.80
68766;DHT22;55756;45.582;11.484;2023-11-21T12:51:10;15.10;64.90
68766;DHT22;55756;45.582;11.484;2023-11-21T12:53:38;15.20;65.30
68766;DHT22;55756;45.582;11.484;2023-11-21T12:56:11;15.20;65.40
68766;DHT22;55756;45.582;11.484;2023-11-21T12:58:39;15.20;65.30
68766;DHT22;55756;45.582;11.484;2023-11-21T13:01:06;15.30;64.70
68766;DHT22;55756;45.582;11.484;2023-11-21T13:03:38;15.30;64.50
68766;DHT22;55756;45.582;11.484;2023-11-21T13:06:05;15.30;64.40
68766;DHT22;55756;45.582;11.484;2023-11-21T13:08:31;15.40;64.40
68766;DHT22;55756;45.582;11.484;2023-11-21T13:10:58;15.40;64.40
68766;DHT22;55756;45.582;11.484;2023-11-21T13:13:26;15.30;64.40
68766;DHT22;55756;45.582;11.484;2023-11-21T13:15:59;15.30;64.50
68766;DHT22;55756;45.582;11.484;2023-11-21T13:18:30;15.40;64.60
68766;DHT22;55756;45.582;11.484;2023-11-21T13:21:03;15.40;65.00
68766;DHT22;55756;45.582;11.484;2023-11-21T13:23:47;15.40;65.10
68766;DHT22;55756;45.582;11.484;2023-11-21T13:26:15;15.40;64.90
68766;DHT22;55756;45.582;11.484;2023-11-21T13:28:41;15.40;65.10
68766;DHT22;55756;45.582;11.484;2023-11-21T13:31:11;15.40;65.20
68766;DHT22;55756;45.582;11.484;2023-11-21T13:33:48;15.40;64.80
68766;DHT22;55756;45.582;11.484;2023-11-21T13:36:22;15.40;64.40
68766;DHT22;55756;45.582;11.484;2023-11-21T13:38:51;15.40;64.40
68766;DHT22;55756;45.582;11.484;2023-11-21T13:41:20;15.40;64.40
68766;DHT22;55756;45.582;11.484;2023-11-21T13:43:53;15.40;64.30
68766;DHT22;55756;45.582;11.484;2023-11-21T13:46:28;15.40;64.50
68766;DHT22;55756;45.582;11.484;2023-11-21T13:48:57;15.40;64.70
68766;DHT22;55756;45.582;11.484;2023-11-21T13:51:23;15.40;64.90
68766;DHT22;55756;45.582;11.484;2023-11-21T13:53:57;15.40;65.10
68766;DHT22;55756;45.582;11.484;2023-11-21T13:56:23;15.50;65.10
68766;DHT22;55756;45.582;11.484;2023-11-21T13:58:50;15.50;65.10
68766;DHT22;55756;45.582;11.484;2023-11-21T14:01:23;15.50;65.20
68766;DHT22;55756;45.582;11.484;2023-11-21T14:03:59;15.50;65.30
68766;DHT22;55756;45.582;11.484;2023-11-21T14:06:38;15.60;65.40
68766;DHT22;55756;45.582;11.484;2023-11-21T14:09:20;15.50;65.70
68766;DHT22;55756;45.582;11.484;2023-11-21T14:12:12;15.60;65.90
68766;DHT22;55756;45.582;11.484;2023-11-21T14:14:38;15.60;66.30
68766;DHT22;55756;45.582;11.484;2023-11-21T14:17:05;15.60;66.40
68766;DHT22;55756;45.582;11.484;2023-11-21T14:19:32;15.60;66.30
68766;DHT22;55756;45.582;11.484;2023-11-21T14:21:59;15.60;66.10
68766;DHT22;55756;45.582;11.484;2023-11-21T14:24:26;15.60;66.00
68766;DHT22;55756;45.582;11.484;2023-11-21T14:26:52;15.60;66.00
68766;DHT22;55756;45.582;11.484;2023-11-21T14:29:18;15.50;65.90
68766;DHT22;55756;45.582;11.484;2023-11-21T14:31:49;15.50;65.90
68766;DHT22;55756;45.582;11.484;2023-11-21T14:34:17;15.50;66.00
68766;DHT22;55756;45.582;11.484;2023-11-21T14:36:43;15.60;66.00
68766;DHT22;55756;45.582;11.484;2023-11-21T14:39:10;15.60;65.60
68766;DHT22;55756;45.582;11.484;2023-11-21T14:41:51;15.60;65.50
68766;DHT22;55756;45.582;11.484;2023-11-21T14:44:18;15.60;65.40
68766;DHT22;55756;45.582;11.484;2023-11-21T14:46:44;15.60;64.90
68766;DHT22;55756;45.582;11.484;2023-11-21T14:49:12;15.60;64.20
68766;DHT22;55756;45.582;11.484;2023-11-21T14:51:53;15.60;64.10
68766;DHT22;55756;45.582;11.484;2023-11-21T14:54:26;15.60;63.90
68766;DHT22;55756;45.582;11.484;2023-11-21T14:57:12;15.60;63.80
68766;DHT22;55756;45.582;11.484;2023-11-21T14:59:45;15.60;63.80
68766;DHT22;55756;45.582;11.484;2023-11-21T15:02:17;15.60;63.80
68766;DHT22;55756;45.582;11.484;2023-11-21T15:04:48;15.60;63.80
68766;DHT22;55756;45.582;11.484;2023-11-21T15:07:17;15.60;63.70
68766;DHT22;55756;45.582;11.484;2023-11-21T15:09:43;15.60;63.50
68766;DHT22;55756;45.582;11.484;2023-11-21T15:12:11;15.60;63.20
68766;DHT22;55756;45.582;11.484;2023-11-21T15:14:45;15.60;62.90
68766;DHT22;55756;45.582;11.484;2023-11-21T15:17:15;15.60;62.40
68766;DHT22;55756;45.582;11.484;2023-11-21T15:19:48;15.60;62.00
68766;DHT22;55756;45.582;11.484;2023-11-21T15:22:14;15.60;61.70
68766;DHT22;55756;45.582;11.484;2023-11-21T15:24:42;15.60;61.30
68766;DHT22;55756;45.582;11.484;2023-11-21T15:27:10;15.60;60.90